Latest METARs, TAFs and NOTAMs for ETSI


---------------------------------------------------------------------------
	(OBSERVATIONS)
ETSI 240220Z AUTO 08002KT 9000 // ////// 14/11 Q1017 ///=
ETSI 240120Z AUTO 08003KT 9999 // ////// 14/12 Q1017 ///=
ETSI 240020Z AUTO 08004KT 9000 // ////// 15/12 Q1017 ///=
---------------------------------------------------------------------------
	(FC)
TAF ETSI 231315Z 2314/2323 07005KT 9999 NSW FEW050 CANCEL 1420=
---------------------------------------------------------------------------
	(TERMINAL AREA FORECAST)
ETSI 231315Z 2314/2323 07005KT 9999 NSW FEW050
    CANCEL 1420=
---------------------------------------------------------------------------
	(NOTAMS)


ETSI D1485/17 SPECIAL ACTIVITY AREA ESTABLISHED FOR AEROBATIC
    FLIGHTS IN VMC RADIUS 3NM CENTERED ON 484200N 0113200E AT
    INGOLSTADT/MANCHING AIRFIELD. GND - 6000FT AMSL, SAT SUN
    0700-SS, AUG 15 0700-SS, OCT 03 0700-SS, 06 AUG 07:00 2017
    UNTIL 28 OCT 15:54 2017. CREATED: 05 MAY 09:24 2017

ETSI D1486/17 SPECIAL ACTIVITY AREA ESTABLISHED FOR AEROBATIC
    FLIGHTS IN VMC RADIUS 3NM CENTERED ON 484200N 0113200E AT
    INGOLSTADT/MANCHING AIRFIELD. GND - 6000FT AMSL, SUN TUE
    0800-SS, 29 OCT 08:00 2017 UNTIL 31 OCT 15:49 2017. CREATED:
    05 MAY 09:25 2017

ETSI M0977/17 INGOLSTADT TACAN IGL CH51X OUT OF SERVICE. 21 AUG
    06:48 2017 UNTIL 31 AUG 15:00 2017. CREATED: 21 AUG 06:52
    2017

ETSI P4032/17 NO APCH END ARRESTMENT FOR RWY 07L. 09 JUN 08:57
    2017 UNTIL 01 SEP 12:00 2017. CREATED: 09 JUN 09:00 2017

ETSI P4384/17 AD MIL OPENING HOURS CHANGED TO: MON-THU 0700-1400
    FR 0700-1100. 22 JUN 13:59 2017 UNTIL 22 SEP 12:00 2017.
    CREATED: 22 JUN 14:02 2017

ETSI P5319/17 OM ILS RWY25L OUT OF SERVICE. 28 JUL 08:27 2017
    UNTIL 31 AUG 14:00 2017. CREATED: 28 JUL 08:28 2017

ETSI P5825/17 AERODROME CLOSED EXCEPT FOR CIVIL AIR TRAFFIC WITH
    PPR. DAILY 1000-1100, 21 AUG 10:00 2017 UNTIL 25 AUG 11:00
    2017. CREATED: 16 AUG 07:59 2017

ETSI P5887/17 PAPI 25R U/S. 18 AUG 06:44 2017 UNTIL 17 NOV 12:00
    2017. CREATED: 18 AUG 06:47 2017

ETSI P5888/17 PAR 25L/07R OUT 0F SERVICE. 18 AUG 06:47 2017 UNTIL
    17 NOV 12:00 2017. CREATED: 18 AUG 06:49 2017

ETSI P5889/17 LIMITED RADAR COVERAGE BELOW 5000FT MSL. DETAILED
    INFORMATION BY INGO RADAR. 18 AUG 06:49 2017 UNTIL 17 NOV
    12:00 2017. CREATED: 18 AUG 06:51 2017

ETSI P5890/17 NO SRA POSSIBLE. 18 AUG 06:50 2017 UNTIL 17 NOV
    12:00 2017. CREATED: 18 AUG 06:52 2017

ETSI P5891/17 PAR 25R/07L OUT OF SERVICE. 18 AUG 06:52 2017 UNTIL
    17 NOV 12:00 2017. CREATED: 18 AUG 06:54 2017

ETSI P5898/17 RWY 25R/07L CLOSED. 21 AUG 05:00 2017 UNTIL 15
    SEP 12:00 2017. CREATED: 18 AUG 08:12 2017

ETSI P5903/17 TWY B3 CLSD. 21 AUG 05:00 2017 UNTIL 15 SEP 12:00
    2017. CREATED: 18 AUG 09:02 2017

ETSI P5935/17 INGOLSTADT DME OUT OF SERVICE. 21 AUG 08:07 2017
    UNTIL 31 AUG 14:00 2017. CREATED: 21 AUG 08:42 2017

ETSI P5936/17 TWY LIGHTS BETWEEN 'B3' AND 'RAMP 2' OUT OF SERVICE.
    21 AUG 09:02 2017 UNTIL 08 SEP 12:00 2017. CREATED: 21 AUG
    09:09 2017

ETSI P5940/17 AERODROME CLOSED. 29 AUG 15:00 2017 UNTIL 29 AUG
    17:00 2017. CREATED: 21 AUG 11:17 2017

ETSI P5960/17 TWY NORTH CLSD. 22 AUG 06:45 2017 UNTIL 15 SEP
    12:00 2017. CREATED: 22 AUG 06:49 2017

ETSI P5961/17 RAMP-A AND RAMP-B LIGHTS OUT OF SERVICE. 22 AUG
    06:49 2017 UNTIL 15 SEP 12:00 2017. CREATED: 22 AUG 06:51
    2017

ETSI P5993/17 FREQUENCY 362.300, 369.375 AND 372.100 OUT OF SERVICE.
    23 AUG 11:13 2017 UNTIL 25 AUG 12:00 2017. CREATED: 23 AUG
    11:15 2017

---------------------------------------------------------------------------